Time;durP1;ratioP1;P1;durP2;ratioP2;P2;SDS_P1;SDS_P2;PMS_P1;PMS_P2;Temp;Humidity;BMP_temperature;BMP_pressure;BME280_temperature;BME280_humidity;BME280_pressure;Samples;Min_cycle;Max_cycle;Signal;HPM_P1;HPM_P2
2021/11/03 00:00:19;;;;;;;9.30;5.15;;;;;;;6.74;100.00;97230.78;5083958;28;20320;-64
2021/11/03 00:02:45;;;;;;;10.65;5.07;;;;;;;6.75;100.00;97227.25;5064053;28;20020;-64
2021/11/03 00:05:14;;;;;;;13.60;4.75;;;;;;;6.83;100.00;97226.16;5063875;28;20024;-64
2021/11/03 00:07:41;;;;;;;9.38;4.50;;;;;;;6.94;100.00;97229.34;5063772;28;20045;-64
2021/11/03 00:10:09;;;;;;;7.47;4.45;;;;;;;6.96;100.00;97217.06;5063803;28;20020;-64
2021/11/03 00:12:35;;;;;;;14.55;4.32;;;;;;;7.00;100.00;97213.50;5081553;28;20027;-64
2021/11/03 00:15:01;;;;;;;10.95;4.07;;;;;;;7.03;100.00;97213.41;5083779;28;20021;-64
2021/11/03 00:17:26;;;;;;;14.70;3.90;;;;;;;7.07;100.00;97225.50;5083826;28;20028;-64
2021/11/03 00:19:52;;;;;;;6.80;3.42;;;;;;;7.09;100.00;97213.22;5085724;28;20020;-64
2021/11/03 00:22:17;;;;;;;6.60;3.22;;;;;;;7.06;100.00;97208.09;5072318;28;20066;-64
2021/11/03 00:24:44;;;;;;;7.28;3.45;;;;;;;7.23;100.00;97205.84;5067740;28;20017;-64
2021/11/03 00:27:10;;;;;;;7.35;3.45;;;;;;;7.14;100.00;97200.88;5067623;28;20221;-64
2021/11/03 00:29:36;;;;;;;6.75;3.15;;;;;;;7.10;100.00;97191.41;5067681;28;20323;-64
2021/11/03 00:32:01;;;;;;;5.93;2.58;;;;;;;7.18;100.00;97189.41;5080335;28;20024;-64
2021/11/03 00:34:26;;;;;;;8.82;2.17;;;;;;;7.16;100.00;97188.63;5087658;28;20094;-64
2021/11/03 00:36:52;;;;;;;5.18;2.15;;;;;;;7.24;100.00;97191.00;5087889;28;20181;-64
2021/11/03 00:39:19;;;;;;;3.65;1.92;;;;;;;7.28;100.00;97183.00;5087556;28;20017;-64
2021/11/03 00:41:45;;;;;;;6.00;2.28;;;;;;;7.31;100.00;97182.91;5076972;28;20066;-64
2021/11/03 00:44:10;;;;;;;5.00;2.80;;;;;;;7.36;100.00;97186.25;5067341;28;20320;-64
2021/11/03 00:46:35;;;;;;;2.92;2.03;;;;;;;7.43;100.00;97182.56;5067434;28;20051;-64
2021/11/03 00:49:01;;;;;;;5.53;2.70;;;;;;;7.46;100.00;97182.47;5067200;28;20028;-64
2021/11/03 00:51:26;;;;;;;6.18;2.13;;;;;;;7.43;100.00;97182.56;5074347;28;20044;-64
2021/11/03 00:53:52;;;;;;;7.55;2.58;;;;;;;7.43;100.00;97172.09;5087301;28;20021;-64
2021/11/03 00:56:17;;;;;;;6.82;2.53;;;;;;;7.53;100.00;97168.28;5087217;28;20320;-64
2021/11/03 00:58:42;;;;;;;5.47;2.67;;;;;;;7.50;100.00;97168.38;5087178;28;20020;-64
2021/11/03 01:01:08;;;;;;;8.52;2.55;;;;;;;7.49;100.00;97169.28;5082159;28;20036;-64
2021/11/03 01:03:34;;;;;;;10.48;3.03;;;;;;;7.54;100.00;97170.00;5067000;28;20167;-64
2021/11/03 01:06:00;;;;;;;9.80;3.28;;;;;;;7.50;100.00;97176.22;5067000;28;20049;-64
2021/11/03 01:08:26;;;;;;;6.80;2.95;;;;;;;7.55;100.00;97181.31;5066865;28;20216;-64
2021/11/03 01:10:52;;;;;;;11.07;3.42;;;;;;;7.48;100.00;97170.19;5068913;28;20336;-64
2021/11/03 01:13:22;;;;;;;6.05;2.60;;;;;;;7.47;100.00;97173.69;5086809;28;20028;-64
2021/11/03 01:15:48;;;;;;;5.60;2.45;;;;;;;7.50;100.00;97178.84;5086862;28;20212;-64
2021/11/03 01:18:14;;;;;;;6.75;2.35;;;;;;;7.60;100.00;97180.31;5086223;28;20027;-64
2021/11/03 01:20:40;;;;;;;7.47;2.85;;;;;;;7.57;100.00;97169.91;5086758;28;20024;-64
2021/11/03 01:23:09;;;;;;;8.13;2.50;;;;;;;7.59;100.00;97178.56;5086669;28;20031;-64
2021/11/03 01:25:35;;;;;;;9.40;3.17;;;;;;;7.56;100.00;97173.41;5086616;28;20043;-64
2021/11/03 01:28:01;;;;;;;9.63;3.03;;;;;;;7.59;100.00;97168.09;5073650;28;20021;-64
2021/11/03 01:30:27;;;;;;;5.72;2.72;;;;;;;7.61;100.00;97166.28;5066195;28;20021;-64
2021/11/03 01:32:54;;;;;;;11.05;3.28;;;;;;;7.55;100.00;97165.63;5066708;28;20017;-64
2021/11/03 01:35:21;;;;;;;11.00;3.30;;;;;;;7.57;100.00;97159.44;5066462;28;20036;-64
2021/11/03 01:37:48;;;;;;;5.10;3.40;;;;;;;7.59;100.00;97157.63;5067480;28;20024;-64
2021/11/03 01:40:17;;;;;;;6.97;3.15;;;;;;;7.48;100.00;97153.63;5066371;28;20028;-64
2021/11/03 01:42:42;;;;;;;11.70;4.00;;;;;;;7.48;100.00;97159.72;5066035;28;20059;-64
2021/11/03 01:45:11;;;;;;;13.32;4.88;;;;;;;7.58;100.00;97161.16;5066161;28;20025;-64
2021/11/03 01:47:55;;;;;;;8.73;3.70;;;;;;;7.53;100.00;97173.50;5066282;28;20112;-64
2021/11/03 01:50:37;;;;;;;8.15;3.35;;;;;;;7.52;100.00;97166.56;5065993;28;20028;-64
2021/11/03 01:53:18;;;;;;;8.70;3.63;;;;;;;7.51;100.00;97158.75;5066132;28;20025;-64
2021/11/03 01:56:13;;;;;;;12.73;4.50;;;;;;;7.54;100.00;97154.31;5065949;28;20029;-64
2021/11/03 01:59:06;;;;;;;14.05;4.35;;;;;;;7.56;100.00;97162.94;5061882;28;20031;-64
2021/11/03 02:01:34;;;;;;;8.90;3.60;;;;;;;7.53;100.00;97152.56;5029669;28;20082;-64
2021/11/03 02:03:59;;;;;;;15.10;4.57;;;;;;;7.54;100.00;97163.91;5065703;28;20021;-64
2021/11/03 02:06:27;;;;;;;12.85;6.97;;;;;;;7.51;100.00;97151.78;5070775;28;20085;-64
2021/11/03 02:08:53;;;;;;;12.70;5.85;;;;;;;7.51;100.00;97158.75;5085711;28;20340;-63
2021/11/03 02:11:21;;;;;;;11.85;4.40;;;;;;;7.46;100.00;97151.06;5085724;28;20268;-63
2021/11/03 02:13:47;;;;;;;12.57;4.63;;;;;;;7.48;100.00;97149.25;5085896;28;20077;-63
2021/11/03 02:16:14;;;;;;;11.95;4.80;;;;;;;7.44;100.00;97147.63;5081857;28;20016;-63
2021/11/03 02:18:40;;;;;;;14.82;4.80;;;;;;;7.44;100.00;97147.63;5065529;28;20024;-63
2021/11/03 02:21:07;;;;;;;10.00;4.38;;;;;;;7.49;100.00;97139.63;5065517;28;20086;-63
2021/11/03 02:23:39;;;;;;;10.27;4.60;;;;;;;7.48;100.00;97143.16;5065497;28;20328;-63
2021/11/03 02:26:30;;;;;;;17.67;5.07;;;;;;;7.45;100.00;97133.66;5065500;28;20017;-63
2021/11/03 02:28:57;;;;;;;8.75;4.22;;;;;;;7.48;100.00;97130.06;5064596;28;20036;-63
2021/11/03 02:31:36;;;;;;;7.22;3.45;;;;;;;7.58;100.00;97127.13;5085331;28;20028;-63
2021/11/03 02:34:07;;;;;;;7.15;3.38;;;;;;;7.46;100.00;97124.88;5085276;28;20055;-63
2021/11/03 02:36:48;;;;;;;8.48;3.65;;;;;;;7.40;100.00;97119.00;5082032;28;20021;-63
2021/11/03 02:39:14;;;;;;;10.32;3.53;;;;;;;7.42;100.00;97118.03;5065161;28;20044;-63
2021/11/03 02:41:41;;;;;;;6.60;3.40;;;;;;;7.43;100.00;97109.25;5064575;28;20343;-63
2021/11/03 02:44:13;;;;;;;6.35;3.70;;;;;;;7.39;100.00;97112.91;5064977;28;20025;-63
2021/11/03 02:46:38;;;;;;;8.25;3.40;;;;;;;7.43;100.00;97103.19;5068366;28;20067;-63
2021/11/03 02:49:04;;;;;;;6.15;3.55;;;;;;;7.46;100.00;97103.06;5084927;28;20036;-63
2021/11/03 02:51:36;;;;;;;7.25;3.28;;;;;;;7.30;100.00;97097.47;5084790;28;20036;-63
2021/11/03 02:54:07;;;;;;;8.85;3.03;;;;;;;7.45;100.00;97097.00;5083180;28;20028;-63
2021/11/03 02:56:37;;;;;;;7.90;3.73;;;;;;;7.31;100.00;97088.72;5084874;28;20047;-63
2021/11/03 02:59:07;;;;;;;9.00;2.80;;;;;;;7.44;100.00;97086.59;5084778;28;20091;-63
2021/11/03 03:01:38;;;;;;;16.38;3.17;;;;;;;7.35;100.00;97086.88;5084776;28;20363;-63
2021/11/03 03:04:14;;;;;;;8.93;3.25;;;;;;;7.24;100.00;97076.72;5084674;28;20065;-63
2021/11/03 03:06:40;;;;;;;7.47;3.08;;;;;;;7.33;100.00;97065.09;5084656;28;20034;-63
2021/11/03 03:09:07;;;;;;;6.68;3.20;;;;;;;7.43;100.00;97063.94;5084529;28;20316;-63
2021/11/03 03:11:35;;;;;;;7.38;3.00;;;;;;;7.41;100.00;97058.75;5084295;28;20048;-63
2021/11/03 03:14:01;;;;;;;9.55;2.72;;;;;;;7.38;100.00;97048.38;5084430;28;20028;-63
2021/11/03 03:16:27;;;;;;;5.95;3.13;;;;;;;7.27;100.00;97040.00;5086368;28;20036;-63
2021/11/03 03:18:53;;;;;;;5.32;3.17;;;;;;;7.39;100.00;97033.50;5087087;28;20031;-63
2021/11/03 03:21:21;;;;;;;7.63;3.65;;;;;;;7.25;100.00;97026.13;5073350;28;20028;-64
2021/11/03 03:23:46;;;;;;;10.07;3.42;;;;;;;7.27;100.00;97021.69;5067023;28;20024;-63
2021/11/03 03:26:13;;;;;;;4.57;3.03;;;;;;;7.21;100.00;97011.41;5067415;28;20047;-63
2021/11/03 03:28:40;;;;;;;7.68;3.15;;;;;;;7.21;100.00;97007.97;5067240;28;20033;-63
2021/11/03 03:31:07;;;;;;;5.30;2.90;;;;;;;7.24;100.00;97013.94;5078825;28;20048;-63
2021/11/03 03:33:33;;;;;;;5.20;3.05;;;;;;;7.32;100.00;97011.94;5087439;28;20025;-63
2021/11/03 03:35:59;;;;;;;7.93;2.75;;;;;;;7.31;100.00;97015.44;5087172;28;20024;-63
2021/11/03 03:38:24;;;;;;;7.57;2.30;;;;;;;7.38;100.00;97023.97;5087376;28;20031;-63
2021/11/03 03:40:50;;;;;;;6.53;2.50;;;;;;;7.32;100.00;97019.78;5077189;28;20024;-63
2021/11/03 03:43:15;;;;;;;4.30;2.22;;;;;;;7.29;100.00;97017.25;5066525;28;20336;-63
2021/11/03 03:45:41;;;;;;;5.80;2.40;;;;;;;7.29;100.00;97012.03;5066528;28;20320;-63
2021/11/03 03:48:07;;;;;;;4.78;2.35;;;;;;;7.26;100.00;97008.66;5065451;28;20326;-63
2021/11/03 03:50:33;;;;;;;6.05;2.00;;;;;;;7.42;100.00;97009.84;5065938;28;20225;-63
2021/11/03 03:52:58;;;;;;;4.68;2.40;;;;;;;7.33;100.00;97000.56;5066419;28;20028;-63
2021/11/03 03:55:24;;;;;;;4.53;1.70;;;;;;;7.39;100.00;96994.25;5066535;28;20031;-63
2021/11/03 03:57:49;;;;;;;4.03;1.90;;;;;;;7.33;100.00;96982.22;5065724;28;20017;-63
2021/11/03 04:00:19;;;;;;;5.38;1.83;;;;;;;7.25;100.00;96986.88;5065766;28;20084;-63
2021/11/03 04:02:46;;;;;;;2.60;1.98;;;;;;;7.25;100.00;96976.41;5065880;28;20028;-63
2021/11/03 04:05:12;;;;;;;6.13;2.10;;;;;;;7.26;100.00;96965.03;5078548;28;20035;-63
2021/11/03 04:07:37;;;;;;;6.90;1.67;;;;;;;7.29;100.00;96964.94;5086329;28;20032;-63
2021/11/03 04:10:04;;;;;;;3.38;1.73;;;;;;;7.30;100.00;96950.94;5086100;28;20025;-63
2021/11/03 04:12:30;;;;;;;7.07;1.83;;;;;;;7.32;100.00;96957.00;5086513;28;20327;-63
2021/11/03 04:14:55;;;;;;;2.53;1.52;;;;;;;7.45;100.00;96976.59;5075548;28;20049;-63
2021/11/03 04:17:21;;;;;;;7.53;1.20;;;;;;;7.45;100.00;96976.59;5065714;28;20024;-63
2021/11/03 04:19:46;;;;;;;3.72;1.50;;;;;;;7.46;100.00;96973.06;5065764;28;20070;-63
2021/11/03 04:22:12;;;;;;;3.38;1.23;;;;;;;7.46;100.00;96975.69;5065295;28;20029;-63
2021/11/03 04:24:37;;;;;;;1.95;1.02;;;;;;;7.50;100.00;96973.84;5069855;28;20024;-63
2021/11/03 04:27:03;;;;;;;4.03;1.30;;;;;;;7.54;100.00;96968.44;5085277;28;20231;-63
2021/11/03 04:29:29;;;;;;;4.07;1.20;;;;;;;7.57;100.00;96976.19;5085467;28;20041;-63
2021/11/03 04:31:54;;;;;;;3.90;0.90;;;;;;;7.53;100.00;96985.03;5085324;28;20048;-63
2021/11/03 04:34:20;;;;;;;1.23;0.90;;;;;;;7.60;100.00;96991.81;5085219;28;20020;-63
2021/11/03 04:36:47;;;;;;;1.92;0.80;;;;;;;7.56;100.00;96969.22;5084966;28;20027;-63
2021/11/03 04:39:12;;;;;;;3.33;0.80;;;;;;;7.61;100.00;96972.56;5085474;28;20024;-63
2021/11/03 04:41:38;;;;;;;1.10;0.77;;;;;;;7.58;100.00;96962.19;5085305;28;20066;-63
2021/11/03 04:44:04;;;;;;;2.63;1.00;;;;;;;7.63;100.00;96973.34;5085435;28;20020;-63
2021/11/03 04:46:30;;;;;;;3.60;1.10;;;;;;;7.61;100.00;96977.78;5068458;28;20033;-63
2021/11/03 04:48:57;;;;;;;1.20;0.80;;;;;;;7.65;100.00;96968.06;5065292;28;20025;-63
2021/11/03 04:51:23;;;;;;;4.05;1.05;;;;;;;7.65;100.00;96979.41;5064972;28;20090;-63
2021/11/03 04:53:49;;;;;;;0.70;0.68;;;;;;;7.63;100.00;96975.97;5065120;28;20016;-63
2021/11/03 04:56:18;;;;;;;2.97;0.70;;;;;;;7.65;100.00;96984.63;5079163;28;20254;-63
2021/11/03 04:58:44;;;;;;;1.45;0.77;;;;;;;7.62;100.00;96984.72;5085495;28;20016;-63
2021/11/03 05:01:09;;;;;;;1.17;0.80;;;;;;;7.71;100.00;96994.91;5076316;28;20025;-63
2021/11/03 05:03:35;;;;;;;1.42;0.90;;;;;;;7.69;100.00;96977.53;5065445;28;20193;-63
2021/11/03 05:06:01;;;;;;;1.10;0.90;;;;;;;7.71;100.00;96979.19;5075745;28;20328;-63
2021/11/03 05:08:27;;;;;;;1.58;0.90;;;;;;;7.68;100.00;96973.19;5089092;28;20025;-63
2021/11/03 05:10:53;;;;;;;1.05;0.95;;;;;;;7.69;100.00;96970.53;5089475;28;20430;-63
2021/11/03 05:13:19;;;;;;;2.30;0.98;;;;;;;7.71;100.00;96973.94;5071850;28;20056;-63
2021/11/03 05:15:45;;;;;;;5.35;1.17;;;;;;;7.78;100.00;96985.91;5083763;28;20080;-63
2021/11/03 05:18:10;;;;;;;1.55;1.05;;;;;;;7.74;100.00;96984.31;5068637;28;20021;-63
2021/11/03 05:20:36;;;;;;;2.15;1.10;;;;;;;7.71;100.00;96979.19;5069219;28;20051;-63
2021/11/03 05:23:02;;;;;;;1.75;1.05;;;;;;;7.66;100.00;96981.09;5069730;28;20028;-63
2021/11/03 05:25:28;;;;;;;2.28;1.10;;;;;;;7.66;100.00;96977.66;5069777;28;20032;-63
2021/11/03 05:27:55;;;;;;;2.33;1.23;;;;;;;7.65;100.00;96974.16;5088167;28;20028;-63
2021/11/03 05:30:23;;;;;;;4.57;1.27;;;;;;;7.62;100.00;96973.41;5089573;28;20024;-63
2021/11/03 05:32:48;;;;;;;2.17;1.20;;;;;;;7.70;100.00;96972.25;5088559;28;20039;-63
2021/11/03 05:35:15;;;;;;;2.42;1.10;;;;;;;7.65;100.00;96978.53;5088748;28;20017;-63
2021/11/03 05:37:41;;;;;;;1.00;0.85;;;;;;;7.69;100.00;96981.00;5072321;28;20062;-63
2021/11/03 05:40:11;;;;;;;2.90;1.02;;;;;;;7.73;100.00;96966.91;5068409;28;20009;-63
2021/11/03 05:42:36;;;;;;;1.40;0.95;;;;;;;7.75;100.00;96957.22;5081720;28;20078;-62
2021/11/03 05:45:03;;;;;;;4.93;1.20;;;;;;;7.77;100.00;96957.16;5086489;28;20243;-63
2021/11/03 05:47:29;;;;;;;1.90;1.10;;;;;;;7.79;100.00;96960.59;5087110;28;20320;-63
2021/11/03 05:49:57;;;;;;;1.83;0.93;;;;;;;7.68;100.00;96953.09;5086928;28;20036;-63
2021/11/03 05:52:23;;;;;;;1.38;1.23;;;;;;;7.67;100.00;96972.34;5086971;28;20348;-63
2021/11/03 05:54:48;;;;;;;7.32;1.38;;;;;;;7.70;100.00;96966.16;5086916;28;20342;-63
2021/11/03 05:57:27;;;;;;;10.20;1.38;;;;;;;7.70;100.00;96969.63;5086808;28;20088;-63
2021/11/03 05:59:54;;;;;;;2.95;1.25;;;;;;;7.69;100.00;96965.28;5086922;28;20032;-63
2021/11/03 06:02:21;;;;;;;2.28;1.15;;;;;;;7.59;100.00;96958.66;5086539;28;20024;-63
2021/11/03 06:04:47;;;;;;;4.70;1.33;;;;;;;7.59;100.00;96963.91;5086780;28;20044;-63
2021/11/03 06:07:13;;;;;;;2.25;0.93;;;;;;;7.51;100.00;96965.94;5086609;28;20220;-63
2021/11/03 06:09:39;;;;;;;4.25;1.80;;;;;;;7.54;100.00;96971.06;5086517;28;20302;-63
2021/11/03 06:12:06;;;;;;;4.53;1.40;;;;;;;7.56;100.00;96984.94;5086377;28;20141;-63
2021/11/03 06:14:32;;;;;;;1.85;1.20;;;;;;;7.55;100.00;96988.47;5086416;28;20032;-63
2021/11/03 06:16:57;;;;;;;4.22;1.48;;;;;;;7.52;100.00;96980.72;5085255;28;20037;-63
2021/11/03 06:19:23;;;;;;;4.50;1.17;;;;;;;7.53;100.00;97000.75;5086357;28;20027;-63
2021/11/03 06:21:48;;;;;;;3.28;1.30;;;;;;;7.62;100.00;96995.22;5086193;28;20020;-63
2021/11/03 06:24:14;;;;;;;4.18;1.38;;;;;;;7.61;100.00;96988.28;5086232;28;20223;-63
2021/11/03 06:26:39;;;;;;;4.38;1.35;;;;;;;7.68;100.00;96988.91;5086218;28;20084;-63
2021/11/03 06:29:06;;;;;;;2.15;1.40;;;;;;;7.71;100.00;97005.38;5086137;28;20025;-63
2021/11/03 06:31:33;;;;;;;2.58;1.10;;;;;;;7.76;100.00;97003.47;5086476;28;20032;-63
2021/11/03 06:33:59;;;;;;;10.50;1.85;;;;;;;7.71;100.00;96994.03;5086194;28;20028;-63
2021/11/03 06:36:25;;;;;;;4.18;1.67;;;;;;;7.70;100.00;97001.06;5086279;28;20081;-63
2021/11/03 06:38:51;;;;;;;4.18;1.70;;;;;;;7.69;100.00;97001.94;5086031;28;20247;-63
2021/11/03 06:41:16;;;;;;;5.72;1.88;;;;;;;7.67;100.00;97009.00;5086322;28;20027;-63
2021/11/03 06:43:42;;;;;;;5.75;2.10;;;;;;;7.64;100.00;97009.13;5085972;28;20371;-63
2021/11/03 06:46:08;;;;;;;2.08;1.60;;;;;;;7.65;100.00;97016.06;5086050;28;20024;-63
2021/11/03 06:48:33;;;;;;;3.15;1.90;;;;;;;7.65;100.00;97026.53;5085911;28;20020;-63
2021/11/03 06:50:59;;;;;;;4.35;2.28;;;;;;;7.63;100.00;97017.84;5085611;28;20100;-63
2021/11/03 06:53:26;;;;;;;4.35;2.03;;;;;;;7.60;100.00;97024.97;5085794;28;20130;-63
2021/11/03 06:55:53;;;;;;;4.75;2.30;;;;;;;7.61;100.00;97019.69;5085837;28;20031;-63
2021/11/03 06:58:20;;;;;;;5.53;2.22;;;;;;;7.59;100.00;97013.63;5085537;28;20027;-63
2021/11/03 07:00:48;;;;;;;4.28;2.30;;;;;;;7.74;100.00;97015.75;5085827;28;20024;-63
2021/11/03 07:03:17;;;;;;;5.68;2.53;;;;;;;7.74;100.00;97020.97;5085814;28;20208;-63
2021/11/03 07:05:45;;;;;;;4.80;2.78;;;;;;;7.71;100.00;97030.69;5066575;28;20091;-63
2021/11/03 07:08:12;;;;;;;7.93;2.92;;;;;;;7.63;100.00;97033.56;5085760;28;20304;-63
2021/11/03 07:10:41;;;;;;;7.00;2.58;;;;;;;7.62;100.00;97029.25;5085486;28;20032;-63
2021/11/03 07:13:07;;;;;;;7.20;3.15;;;;;;;7.71;100.00;97034.19;5085567;28;20024;-63
2021/11/03 07:15:34;;;;;;;6.40;3.10;;;;;;;7.68;100.00;97036.91;5085303;28;20328;-63
2021/11/03 07:18:00;;;;;;;5.35;3.22;;;;;;;7.70;100.00;97047.31;5085523;28;20020;-63
2021/11/03 07:20:26;;;;;;;5.57;3.63;;;;;;;7.68;100.00;97047.38;5085110;28;20331;-63
2021/11/03 07:22:52;;;;;;;8.13;3.50;;;;;;;7.68;100.00;97050.00;5084906;28;20025;-63
2021/11/03 07:25:22;;;;;;;6.75;2.92;;;;;;;7.74;100.00;97049.78;5084968;28;20243;-63
2021/11/03 07:27:51;;;;;;;9.00;3.60;;;;;;;7.70;100.00;97058.66;5084472;28;20029;-63
2021/11/03 07:30:17;;;;;;;12.45;4.15;;;;;;;7.69;100.00;97058.72;5084791;28;20025;-63
2021/11/03 07:32:42;;;;;;;9.43;3.72;;;;;;;7.70;100.00;97065.66;5084799;28;20029;-63
2021/11/03 07:35:08;;;;;;;6.78;3.88;;;;;;;7.75;100.00;97067.19;5084733;28;20370;-63
2021/11/03 07:37:34;;;;;;;8.40;4.43;;;;;;;7.83;100.00;97065.19;5084675;28;20024;-63
2021/11/03 07:39:59;;;;;;;7.13;4.13;;;;;;;7.82;100.00;97073.94;5084741;28;20315;-63
2021/11/03 07:42:25;;;;;;;9.15;4.35;;;;;;;7.87;100.00;97079.91;5084729;28;20031;-63
2021/11/03 07:44:50;;;;;;;8.10;4.07;;;;;;;7.87;100.00;97079.91;5084609;28;20052;-63
2021/11/03 07:47:16;;;;;;;7.35;4.15;;;;;;;7.82;100.00;97087.03;5084396;28;20031;-63
2021/11/03 07:49:42;;;;;;;9.35;4.28;;;;;;;7.81;100.00;97090.56;5084247;28;20021;-63
2021/11/03 07:52:07;;;;;;;9.70;4.97;;;;;;;7.87;100.00;97090.38;5084203;28;20288;-63
2021/11/03 07:54:33;;;;;;;6.20;4.30;;;;;;;7.93;100.00;97095.41;5084432;28;20030;-63
2021/11/03 07:56:59;;;;;;;6.25;4.00;;;;;;;7.85;100.00;97100.03;5084270;28;20025;-63
2021/11/03 07:59:25;;;;;;;7.30;3.92;;;;;;;7.90;100.00;97100.75;5084197;28;20020;-63
2021/11/03 08:01:51;;;;;;;9.57;4.70;;;;;;;7.87;100.00;97098.22;5084416;28;20244;-63
2021/11/03 08:04:18;;;;;;;8.25;4.43;;;;;;;7.83;100.00;97098.38;5084106;28;20024;-63
2021/11/03 08:06:43;;;;;;;5.97;3.88;;;;;;;7.88;100.00;97107.78;5084117;28;20256;-63
2021/11/03 08:09:09;;;;;;;13.45;5.10;;;;;;;7.82;100.00;97113.22;5084191;28;20104;-63
2021/11/03 08:11:50;;;;;;;8.52;4.90;;;;;;;7.86;100.00;97120.09;5084443;28;20031;-63
2021/11/03 08:14:23;;;;;;;10.82;4.60;;;;;;;7.88;100.00;97110.41;5084279;28;20047;-63
2021/11/03 08:17:21;;;;;;;7.85;4.53;;;;;;;7.85;100.00;97102.66;5084260;28;20032;-63
2021/11/03 08:19:53;;;;;;;7.95;4.47;;;;;;;7.89;100.00;97104.28;5029476;28;20134;-63
2021/11/03 08:22:23;;;;;;;;;;;;;;;7.87;100.00;97100.84;5084598;28;20024;-63
2021/11/03 08:24:51;;;;;;;8.93;4.35;;;;;;;7.88;100.00;97101.72;5084202;28;19912;-63
2021/11/03 08:27:17;;;;;;;9.32;4.13;;;;;;;7.91;100.00;97107.69;5084113;28;20316;-63
2021/11/03 08:29:44;;;;;;;10.18;4.15;;;;;;;7.86;100.00;97099.16;5083839;28;20055;-63
2021/11/03 08:32:13;;;;;;;7.15;4.00;;;;;;;7.94;100.00;97097.13;5083814;28;20031;-63
2021/11/03 08:34:38;;;;;;;12.60;4.18;;;;;;;7.93;100.00;97099.78;5083918;28;20020;-63
2021/11/03 08:37:08;;;;;;;7.57;3.60;;;;;;;8.05;100.00;97110.72;5083893;28;20024;-63
2021/11/03 08:39:34;;;;;;;5.07;3.38;;;;;;;8.07;100.00;97114.13;5083936;28;20024;-63
2021/11/03 08:42:00;;;;;;;12.80;4.22;;;;;;;8.05;100.00;97110.72;5087515;28;20343;-63
2021/11/03 08:44:27;;;;;;;6.85;3.90;;;;;;;8.05;100.00;97118.59;5087756;28;20028;-63
2021/11/03 08:46:53;;;;;;;6.68;3.22;;;;;;;8.08;100.00;97121.09;5087881;28;20207;-63
2021/11/03 08:49:18;;;;;;;6.93;3.60;;;;;;;8.19;100.00;97118.97;5087472;28;20024;-63
2021/11/03 08:51:44;;;;;;;10.18;3.58;;;;;;;8.18;100.00;97117.25;5087455;28;20041;-63
2021/11/03 08:54:09;;;;;;;7.53;3.67;;;;;;;8.30;100.00;97110.78;5087519;28;20063;-63
2021/11/03 08:56:37;;;;;;;6.35;3.38;;;;;;;8.33;100.00;97106.25;5087612;28;20324;-63
2021/11/03 08:59:04;;;;;;;5.72;3.35;;;;;;;8.33;100.00;97105.44;5087584;28;20097;-63
2021/11/03 09:01:30;;;;;;;4.53;2.70;;;;;;;8.37;100.00;97113.13;5087338;28;20216;-63
2021/11/03 09:03:56;;;;;;;4.95;2.88;;;;;;;8.40;100.00;97118.28;5087416;28;20070;-63
2021/11/03 09:06:22;;;;;;;5.50;2.67;;;;;;;8.46;100.00;97118.06;5087082;28;20032;-63
2021/11/03 09:08:50;;;;;;;6.40;3.47;;;;;;;8.49;100.00;97122.34;5087212;28;20020;-63
2021/11/03 09:11:16;;;;;;;6.75;3.13;;;;;;;8.54;100.00;97120.38;5087251;28;20173;-63
2021/11/03 09:13:42;;;;;;;5.53;3.10;;;;;;;8.55;100.00;97122.94;5087400;28;20285;-63
2021/11/03 09:16:07;;;;;;;4.65;2.60;;;;;;;8.61;100.00;97127.97;5087140;28;20028;-63
2021/11/03 09:18:34;;;;;;;5.88;2.65;;;;;;;8.66;100.00;97136.56;5087163;28;20027;-63
2021/11/03 09:20:59;;;;;;;5.47;2.90;;;;;;;8.76;100.00;97132.69;5087467;28;20322;-63
2021/11/03 09:23:26;;;;;;;3.92;2.53;;;;;;;8.93;100.00;97128.59;5087325;28;20112;-63
2021/11/03 09:25:54;;;;;;;7.50;3.20;;;;;;;9.02;100.00;97125.66;5087227;28;20028;-63
2021/11/03 09:28:22;;;;;;;8.38;3.30;;;;;;;8.99;100.00;97136.25;5087374;28;20025;-63
2021/11/03 09:30:48;;;;;;;3.60;2.42;;;;;;;8.95;100.00;97139.91;5086923;28;20047;-63
2021/11/03 09:33:14;;;;;;;4.13;2.72;;;;;;;9.05;100.00;97141.28;5087056;28;20083;-63
2021/11/03 09:35:44;;;;;;;3.97;2.20;;;;;;;9.11;100.00;97141.06;5087098;28;20036;-63
2021/11/03 09:38:13;;;;;;;5.10;2.33;;;;;;;9.25;100.00;97137.00;5087275;28;20016;-63
2021/11/03 09:41:11;;;;;;;4.20;2.60;;;;;;;9.37;100.00;97146.16;5086965;28;20031;-63
2021/11/03 09:43:39;;;;;;;4.90;2.20;;;;;;;9.28;100.00;97143.88;5031846;28;20331;-63
2021/11/03 09:46:19;;;;;;;4.15;1.95;;;;;;;9.31;100.00;97141.16;5087422;28;20317;-63
2021/11/03 09:48:47;;;;;;;3.05;1.80;;;;;;;9.35;100.00;97142.75;5087099;28;20201;-63
2021/11/03 09:51:20;;;;;;;5.30;2.15;;;;;;;9.38;100.00;97143.50;5086725;28;20049;-63
2021/11/03 09:53:50;;;;;;;4.80;2.05;;;;;;;9.49;99.70;97145.72;5087091;28;20092;-63
2021/11/03 09:56:19;;;;;;;8.48;2.10;;;;;;;9.43;98.90;97148.56;5087135;28;20196;-63
2021/11/03 09:59:23;;;;;;;3.63;1.80;;;;;;;9.44;99.07;97150.28;5086625;28;20023;-63
2021/11/03 10:01:51;;;;;;;2.55;1.83;;;;;;;9.39;99.33;97160.06;5086942;28;20079;-63
2021/11/03 10:04:39;;;;;;;4.20;2.10;;;;;;;9.34;100.00;97162.03;5086745;28;20028;-63
2021/11/03 10:07:26;;;;;;;4.05;1.95;;;;;;;9.34;100.00;97159.41;5087149;28;20020;-63
2021/11/03 10:09:51;;;;;;;5.43;2.20;;;;;;;9.33;100.00;97162.97;5086749;28;20024;-63
2021/11/03 10:12:19;;;;;;;4.22;2.17;;;;;;;9.32;100.00;97148.97;5087131;28;20021;-63
2021/11/03 10:14:45;;;;;;;5.57;2.65;;;;;;;9.34;100.00;97162.03;5087349;28;20215;-63
2021/11/03 10:17:26;;;;;;;2.97;1.83;;;;;;;9.27;99.56;97155.31;5086730;28;20020;-63
2021/11/03 10:19:52;;;;;;;2.75;1.75;;;;;;;9.26;100.00;97162.31;5087354;28;20219;-63
2021/11/03 10:22:18;;;;;;;6.10;2.00;;;;;;;9.27;100.00;97168.44;5087453;28;20076;-63
2021/11/03 10:24:57;;;;;;;4.45;1.92;;;;;;;9.27;100.00;97173.69;5087177;28;20029;-63
2021/11/03 10:27:22;;;;;;;3.35;1.77;;;;;;;9.37;100.00;97180.31;5087480;28;20082;-63
2021/11/03 10:29:49;;;;;;;3.20;1.95;;;;;;;9.33;100.00;97174.28;5087450;28;20328;-63
2021/11/03 10:32:39;;;;;;;3.45;2.03;;;;;;;9.34;100.00;97172.53;5087376;28;20052;-63
2021/11/03 10:35:15;;;;;;;3.58;1.85;;;;;;;9.37;100.00;97167.19;5087115;28;20043;-63
2021/11/03 10:37:44;;;;;;;5.32;2.17;;;;;;;9.32;100.00;97171.72;5087195;28;20012;-63
2021/11/03 10:40:17;;;;;;;3.20;1.90;;;;;;;9.30;100.00;97165.69;5087342;28;20252;-63
2021/11/03 10:42:54;;;;;;;3.80;1.50;;;;;;;9.41;100.00;97168.75;5087116;28;20028;-63
2021/11/03 10:45:37;;;;;;;2.65;1.55;;;;;;;9.43;100.00;97166.94;5087104;28;20267;-63
2021/11/03 10:48:23;;;;;;;3.15;1.90;;;;;;;9.36;100.00;97165.47;5087144;28;20190;-63
2021/11/03 10:50:54;;;;;;;2.38;1.50;;;;;;;9.33;99.96;97165.59;5086656;28;20352;-63
2021/11/03 10:53:51;;;;;;;7.03;1.83;;;;;;;9.42;100.00;97159.97;5086954;28;20025;-63
2021/11/03 10:56:24;;;;;;;3.42;1.63;;;;;;;9.43;100.00;97161.69;5085296;28;20032;-63
2021/11/03 10:58:49;;;;;;;4.07;1.90;;;;;;;9.33;100.00;97161.16;5086977;28;20088;-63
2021/11/03 11:01:40;;;;;;;3.25;1.70;;;;;;;9.35;100.00;97161.97;5086950;28;20066;-63
2021/11/03 11:04:35;;;;;;;2.95;1.73;;;;;;;9.46;99.87;97161.59;5086181;28;20074;-63
2021/11/03 11:07:31;;;;;;;2.58;1.27;;;;;;;9.52;99.87;97161.34;5086409;28;20340;-63
2021/11/03 11:10:17;;;;;;;2.22;1.30;;;;;;;9.54;99.77;97170.00;5086091;28;20228;-63
2021/11/03 11:12:44;;;;;;;2.80;1.48;;;;;;;9.55;99.64;97166.47;5085810;28;20336;-63
2021/11/03 11:15:13;;;;;;;2.15;1.50;;;;;;;9.57;99.99;97162.00;5086353;28;20052;-63
2021/11/03 11:18:03;;;;;;;5.70;1.60;;;;;;;9.58;98.98;97158.47;5086223;28;20024;-63
2021/11/03 11:20:52;;;;;;;2.90;1.50;;;;;;;9.68;98.98;97157.22;5086448;28;20016;-63
2021/11/03 11:23:29;;;;;;;2.10;1.35;;;;;;;9.73;99.37;97160.50;5086721;28;20088;-63
2021/11/03 11:26:52;;;;;;;3.47;1.20;;;;;;;9.78;98.92;97154.13;5086095;28;20044;-63
2021/11/03 11:29:33;;;;;;;2.80;1.50;;;;;;;9.79;98.55;97149.75;4985491;28;20059;-63
2021/11/03 11:32:22;;;;;;;2.30;1.40;;;;;;;9.80;98.69;97149.69;4985972;28;20106;-63
2021/11/03 11:35:00;;;;;;;2.08;1.23;;;;;;;9.75;98.63;97140.28;4985934;28;20049;-63
2021/11/03 11:37:43;;;;;;;2.25;1.15;;;;;;;9.77;98.08;97146.31;4985587;28;20031;-63
2021/11/03 11:40:17;;;;;;;3.92;1.30;;;;;;;9.84;98.27;97142.56;4985575;28;20035;-63
2021/11/03 11:42:54;;;;;;;2.28;1.20;;;;;;;9.77;97.89;97151.56;4985606;28;20030;-63